3PA3 weather

DR2 Heliport
Fogelsville, Pennsylvania, United States

Public forecast

Using degrees Fahrenheit for public forecast. Weather courtesy of forecast.io.

Closest aviation weather report (METAR) to DR2 Heliport

Closest report is Allentown Queen City Municipal Airport, 7.3 nm (13.6 km) ESE. Retrieved 2020/02/24 02:35 UTC (18 minutes ago):

KXLL 240235Z AUTO 21005KT 10SM CLR 06/M09 A3010 RMK AO2

Closest aviation forecast (TAF) to DR2 Heliport

Closest forecast is Lehigh Valley International Airport, 9.7 nm (17.9 km) ENE. Retrieved 2020-02-24 00:22 UTC (3 hours ago):

TAF KABE 232320Z 2400/2424 22006KT P6SM FEW090 FM240100 VRB03KT P6SM SCT070 FM241500 23005KT P6SM SCT200 FM242100 VRB04KT P6SM BKN150